Timber, Missouri
Current Conditions -  °F | °C
As of 5:58 PM on Saturday 25 Oct 2014 (Local Time) from KTBN Reporting Station
Clear Clear  
Wind Chill: 78°   Ceiling: Unl
Heat Index: 79°   Visibility: 10mi
Dew Point: 60°   Wind: 2mph
Humidity: 55%   Direction: 330°NNW
Pressure: 30.03"   Gusts: NA
Location:  37.5023°N, 91.4546°W
Report Text: KTBN 252258Z AUTO 33002KT 10SM CLR 25/16 A3003 RMK AO2 SLP165 T02530158
Loading
Personal Weather Stations






























Interactive Weather Map
Tropical Storm Tracking
New forecast layout! Learn more

10-Day Weather Forecast

Advertisements
Track Severe Weather on mobile